Time;durP1;ratioP1;P1;durP2;ratioP2;P2;SDS_P1;SDS_P2;PMS_P1;PMS_P2;Temp;Humidity;BMP_temperature;BMP_pressure;BME280_temperature;BME280_humidity;BME280_pressure;Samples;Min_cycle;Max_cycle;Signal;HPM_P1;HPM_P2
2021/05/09 00:00:00;;;;;;;3.08;1.63;;;13.80;63.10;;;;;;6168492;23;20392;-74
2021/05/09 00:02:27;;;;;;;1.40;1.20;;;13.80;63.10;;;;;;6158159;23;20021;-75
2021/05/09 00:04:55;;;;;;;1.75;1.00;;;13.80;63.20;;;;;;6158124;23;20096;-75
2021/05/09 00:07:21;;;;;;;1.50;1.35;;;13.80;63.20;;;;;;6157822;23;20056;-74
2021/05/09 00:09:47;;;;;;;2.05;1.25;;;13.80;63.10;;;;;;6168370;23;20017;-74
2021/05/09 00:12:14;;;;;;;2.33;1.33;;;13.80;63.20;;;;;;6157603;23;20408;-74
2021/05/09 00:14:40;;;;;;;1.83;1.10;;;13.80;63.10;;;;;;6167976;23;20010;-74
2021/05/09 00:17:05;;;;;;;1.58;0.90;;;13.80;63.10;;;;;;6168186;23;20080;-75
2021/05/09 00:19:31;;;;;;;3.65;1.60;;;13.80;63.20;;;;;;6157631;23;20013;-74
2021/05/09 00:21:57;;;;;;;2.30;1.10;;;13.80;63.20;;;;;;6167438;23;20009;-74
2021/05/09 00:24:23;;;;;;;1.30;1.00;;;13.80;63.20;;;;;;6168560;23;20024;-74
2021/05/09 00:27:09;;;;;;;2.17;1.20;;;13.80;63.20;;;;;;6157330;23;20021;-74
2021/05/09 00:29:34;;;;;;;1.90;1.13;;;13.80;63.20;;;;;;6167504;23;20059;-74
2021/05/09 00:32:02;;;;;;;1.80;1.20;;;13.80;63.20;;;;;;6142491;23;20021;-74
2021/05/09 00:34:31;;;;;;;1.77;1.17;;;13.80;63.20;;;;;;6141739;23;20013;-74
2021/05/09 00:36:57;;;;;;;1.75;1.23;;;13.80;63.20;;;;;;6168027;23;20021;-74
2021/05/09 00:39:30;;;;;;;1.58;1.27;;;13.80;63.20;;;;;;6168176;23;20403;-74
2021/05/09 00:42:01;;;;;;;2.13;1.17;;;13.80;63.20;;;;;;6158797;23;20072;-74
2021/05/09 00:44:27;;;;;;;1.75;1.40;;;13.80;63.80;;;;;;6158048;23;20014;-74
2021/05/09 00:46:52;;;;;;;1.70;1.10;;;13.80;63.20;;;;;;6167773;23;20067;-74
2021/05/09 00:49:19;;;;;;;1.83;1.13;;;13.80;63.20;;;;;;6158407;23;20025;-74
2021/05/09 00:51:47;;;;;;;1.80;1.40;;;13.80;63.20;;;;;;6168141;23;20024;-74
2021/05/09 00:54:20;;;;;;;2.10;1.23;;;13.80;63.20;;;;;;6168401;23;20041;-74
2021/05/09 00:56:48;;;;;;;1.70;1.23;;;13.80;63.20;;;;;;6167912;23;20025;-74
2021/05/09 00:59:16;;;;;;;2.28;1.50;;;13.80;63.20;;;;;;6167784;23;20013;-74
2021/05/09 01:01:44;;;;;;;1.92;1.27;;;13.80;63.20;;;;;;6157597;23;20021;-74
2021/05/09 01:04:13;;;;;;;2.88;1.30;;;13.80;63.20;;;;;;6158721;23;20065;-74
2021/05/09 01:06:40;;;;;;;1.75;1.23;;;13.80;63.20;;;;;;6168285;23;20017;-74
2021/05/09 01:09:09;;;;;;;1.77;1.20;;;13.80;63.20;;;;;;6168020;23;20017;-74
2021/05/09 01:11:36;;;;;;;1.85;1.05;;;13.80;63.20;;;;;;6167555;23;20048;-74
2021/05/09 01:14:03;;;;;;;1.30;1.20;;;13.80;63.20;;;;;;6168448;23;20024;-74
2021/05/09 01:16:30;;;;;;;1.45;1.27;;;13.80;63.20;;;;;;6167656;23;20087;-74
2021/05/09 01:18:56;;;;;;;2.20;1.30;;;13.80;63.20;;;;;;6158209;23;20089;-74
2021/05/09 01:21:22;;;;;;;2.38;0.98;;;13.80;63.20;;;;;;6158000;23;20017;-74
2021/05/09 01:23:47;;;;;;;2.03;1.25;;;13.90;63.20;;;;;;6158153;23;20033;-74
2021/05/09 01:26:15;;;;;;;1.40;1.15;;;13.90;63.20;;;;;;6157590;23;20427;-74
2021/05/09 01:28:41;;;;;;;1.27;1.17;;;13.90;63.20;;;;;;6167550;23;20014;-74
2021/05/09 01:31:09;;;;;;;1.67;1.27;;;13.90;63.20;;;;;;6169709;23;20017;-74
2021/05/09 01:33:34;;;;;;;1.85;1.20;;;13.80;63.10;;;;;;6169845;23;20020;-74
2021/05/09 01:36:00;;;;;;;1.92;1.20;;;13.90;63.20;;;;;;6159923;23;20272;-74
2021/05/09 01:38:26;;;;;;;3.08;1.48;;;13.80;63.20;;;;;;6169520;23;20033;-74
2021/05/09 01:40:52;;;;;;;1.48;1.05;;;13.80;63.10;;;;;;6159583;23;20014;-74
2021/05/09 01:43:20;;;;;;;1.75;1.27;;;13.90;63.80;;;;;;6168767;23;20019;-74
2021/05/09 01:45:46;;;;;;;1.77;1.40;;;13.80;63.10;;;;;;6169920;23;20084;-74
2021/05/09 01:48:12;;;;;;;1.42;1.15;;;13.90;63.20;;;;;;6160100;23;20025;-74
2021/05/09 01:50:39;;;;;;;1.80;1.25;;;13.90;63.80;;;;;;6159250;23;20024;-74
2021/05/09 01:53:05;;;;;;;1.88;1.30;;;13.90;63.30;;;;;;6169843;23;20017;-74
2021/05/09 01:55:32;;;;;;;1.83;1.15;;;13.90;63.30;;;;;;6158795;23;20047;-74
2021/05/09 01:57:59;;;;;;;1.40;1.20;;;13.80;63.20;;;;;;6158982;23;20014;-74
2021/05/09 02:00:25;;;;;;;1.73;1.10;;;13.90;63.30;;;;;;6160196;23;20013;-75
2021/05/09 02:02:51;;;;;;;2.05;1.48;;;13.90;63.40;;;;;;6159773;23;20013;-74
2021/05/09 02:05:18;;;;;;;2.40;1.40;;;13.80;63.40;;;;;;6160077;23;20142;-74
2021/05/09 02:08:04;;;;;;;1.30;1.08;;;13.80;63.30;;;;;;6137914;23;20028;-74
2021/05/09 02:10:30;;;;;;;2.03;1.40;;;13.80;63.30;;;;;;6159022;23;20017;-74
2021/05/09 02:12:56;;;;;;;2.00;1.13;;;13.90;63.40;;;;;;6170438;23;20079;-74
2021/05/09 02:15:22;;;;;;;2.10;1.40;;;13.90;63.40;;;;;;6169040;23;20013;-74
2021/05/09 02:17:48;;;;;;;1.60;0.90;;;13.80;63.40;;;;;;6159435;23;20211;-75
2021/05/09 02:20:15;;;;;;;1.20;1.00;;;13.90;63.50;;;;;;6169242;23;20037;-74
2021/05/09 02:22:41;;;;;;;1.70;1.30;;;13.80;63.40;;;;;;6169034;23;20135;-74
2021/05/09 02:25:08;;;;;;;1.80;1.10;;;13.90;63.50;;;;;;6158977;23;20568;-74
2021/05/09 02:27:33;;;;;;;1.50;1.05;;;13.90;63.50;;;;;;6169260;23;20088;-74
2021/05/09 02:30:00;;;;;;;1.85;1.10;;;13.90;63.50;;;;;;6159101;23;20033;-74
2021/05/09 02:32:27;;;;;;;1.33;1.00;;;13.90;63.50;;;;;;6158873;23;20045;-74
2021/05/09 02:34:56;;;;;;;1.98;1.40;;;13.90;63.50;;;;;;6169085;23;20024;-74
2021/05/09 02:37:21;;;;;;;1.33;1.10;;;13.90;63.50;;;;;;6168807;23;20009;-75
2021/05/09 02:39:47;;;;;;;1.50;1.02;;;13.90;63.50;;;;;;6168677;23;20071;-74
2021/05/09 02:42:13;;;;;;;1.35;1.20;;;13.90;63.50;;;;;;6168940;23;20013;-75
2021/05/09 02:44:39;;;;;;;1.80;1.23;;;13.90;63.50;;;;;;6169063;23;20487;-74
2021/05/09 02:47:05;;;;;;;1.88;1.08;;;13.90;63.50;;;;;;6169352;23;20275;-74
2021/05/09 02:49:31;;;;;;;2.17;1.42;;;13.90;63.40;;;;;;6159761;23;20408;-74
2021/05/09 02:51:59;;;;;;;1.83;1.23;;;13.90;63.40;;;;;;6144029;23;20080;-74
2021/05/09 02:54:25;;;;;;;1.73;1.05;;;13.90;63.50;;;;;;6168190;23;20287;-74
2021/05/09 02:56:51;;;;;;;1.55;1.30;;;13.90;63.40;;;;;;6168450;23;20033;-74
2021/05/09 02:59:17;;;;;;;2.05;1.20;;;13.90;63.40;;;;;;6168124;23;20009;-74
2021/05/09 03:01:44;;;;;;;2.60;1.20;;;13.90;63.30;;;;;;6158381;23;20430;-74
2021/05/09 03:04:10;;;;;;;1.30;1.20;;;13.90;63.30;;;;;;6169202;23;20024;-74
2021/05/09 03:06:35;;;;;;;2.03;1.27;;;13.90;63.30;;;;;;6168668;23;20370;-74
2021/05/09 03:09:02;;;;;;;1.23;1.13;;;13.90;63.30;;;;;;6167985;23;20048;-74
2021/05/09 03:11:29;;;;;;;1.70;1.17;;;13.90;63.40;;;;;;6158856;23;20032;-74
2021/05/09 03:13:56;;;;;;;1.52;1.20;;;13.90;63.40;;;;;;6168458;23;20277;-74
2021/05/09 03:16:22;;;;;;;1.70;1.30;;;13.90;63.40;;;;;;6168389;23;20024;-74
2021/05/09 03:18:51;;;;;;;1.30;1.00;;;13.90;63.40;;;;;;6158609;23;20017;-74
2021/05/09 03:21:20;;;;;;;1.73;1.33;;;13.90;63.40;;;;;;6168236;23;20010;-75
2021/05/09 03:23:46;;;;;;;1.60;1.27;;;13.90;63.40;;;;;;6167250;23;20009;-74
2021/05/09 03:26:12;;;;;;;1.75;1.25;;;13.90;63.40;;;;;;6158711;23;20300;-74
2021/05/09 03:28:39;;;;;;;1.30;1.00;;;13.90;63.40;;;;;;6158358;23;20010;-74
2021/05/09 03:31:05;;;;;;;1.95;1.42;;;13.90;63.40;;;;;;6168677;23;20406;-74
2021/05/09 03:33:31;;;;;;;1.90;1.38;;;13.90;63.30;;;;;;6158307;23;20062;-74
2021/05/09 03:35:56;;;;;;;2.25;1.35;;;13.90;63.30;;;;;;6168260;23;20054;-74
2021/05/09 03:38:22;;;;;;;2.35;1.38;;;13.90;63.30;;;;;;6168693;23;20014;-74
2021/05/09 03:40:48;;;;;;;2.30;1.58;;;13.90;63.30;;;;;;6168192;23;20021;-74
2021/05/09 03:43:14;;;;;;;1.88;1.20;;;13.90;63.30;;;;;;6142831;23;20024;-74
2021/05/09 03:45:39;;;;;;;1.35;1.25;;;13.90;63.40;;;;;;6158571;23;20089;-74
2021/05/09 03:48:05;;;;;;;2.10;1.30;;;13.90;63.30;;;;;;6165205;23;20009;-75
2021/05/09 03:50:35;;;;;;;1.67;1.27;;;13.90;63.30;;;;;;6168145;23;20013;-74
2021/05/09 03:53:01;;;;;;;3.85;1.80;;;13.90;63.30;;;;;;6167620;23;20009;-74
2021/05/09 03:55:27;;;;;;;1.75;1.38;;;13.90;63.40;;;;;;6168592;23;20068;-74
2021/05/09 03:57:53;;;;;;;3.40;1.63;;;13.90;63.40;;;;;;6167932;23;20414;-74
2021/05/09 04:00:19;;;;;;;1.77;1.45;;;13.90;63.40;;;;;;6158171;23;20025;-75
2021/05/09 04:02:45;;;;;;;1.52;1.27;;;13.90;63.40;;;;;;6168505;23;20028;-74
2021/05/09 04:05:13;;;;;;;2.47;1.60;;;13.90;63.40;;;;;;6167560;23;20017;-74
2021/05/09 04:07:39;;;;;;;1.55;1.38;;;13.90;63.40;;;;;;6168656;23;20018;-74
2021/05/09 04:10:06;;;;;;;2.92;1.75;;;13.90;63.40;;;;;;6168545;23;20013;-75
2021/05/09 04:12:31;;;;;;;1.98;1.30;;;13.90;63.40;;;;;;6167590;23;20076;-74
2021/05/09 04:14:58;;;;;;;2.45;1.70;;;13.90;63.50;;;;;;6167600;23;20010;-74
2021/05/09 04:17:24;;;;;;;2.67;1.65;;;13.90;63.50;;;;;;6157562;23;20013;-75
2021/05/09 04:19:49;;;;;;;3.25;1.52;;;13.90;63.50;;;;;;6167719;23;20010;-74
2021/05/09 04:22:16;;;;;;;2.30;1.65;;;13.90;63.60;;;;;;6158029;23;20107;-74
2021/05/09 04:24:43;;;;;;;2.03;1.58;;;13.90;63.60;;;;;;6157898;23;20049;-75
2021/05/09 04:27:09;;;;;;;2.83;1.60;;;13.80;63.50;;;;;;6158906;23;20021;-74
2021/05/09 04:29:35;;;;;;;2.60;1.63;;;13.90;63.60;;;;;;6168504;23;20075;-75
2021/05/09 04:32:03;;;;;;;2.05;1.40;;;13.90;63.60;;;;;;6133542;23;20260;-74
2021/05/09 04:34:29;;;;;;;2.00;1.58;;;13.90;63.60;;;;;;6167688;23;20018;-74
2021/05/09 04:36:55;;;;;;;1.85;1.45;;;13.90;63.60;;;;;;6158140;23;20017;-74
2021/05/09 04:39:21;;;;;;;1.73;1.55;;;13.90;63.60;;;;;;6168170;23;20045;-74
2021/05/09 04:41:47;;;;;;;2.40;1.55;;;13.90;63.60;;;;;;6168595;23;20076;-74
2021/05/09 04:44:12;;;;;;;2.13;1.50;;;13.90;63.60;;;;;;6167881;23;20017;-74
2021/05/09 04:46:38;;;;;;;2.28;1.65;;;13.90;63.60;;;;;;6167805;23;20017;-74
2021/05/09 04:49:04;;;;;;;1.85;1.45;;;13.90;63.60;;;;;;6160412;23;20014;-74
2021/05/09 04:51:30;;;;;;;2.95;1.77;;;13.90;63.60;;;;;;6168415;23;20020;-74
2021/05/09 04:53:56;;;;;;;2.35;1.63;;;13.90;63.60;;;;;;6168572;23;20068;-74
2021/05/09 04:56:22;;;;;;;1.85;1.40;;;13.90;63.60;;;;;;6168092;23;20017;-74
2021/05/09 04:58:48;;;;;;;2.08;1.60;;;13.90;63.60;;;;;;6167576;23;20041;-74
2021/05/09 05:01:13;;;;;;;1.88;1.50;;;13.90;63.60;;;;;;6157957;23;20013;-74
2021/05/09 05:03:40;;;;;;;1.90;1.60;;;13.90;63.60;;;;;;6157850;23;20021;-74
2021/05/09 05:06:07;;;;;;;2.45;1.45;;;13.90;63.70;;;;;;6170134;23;20013;-74
2021/05/09 05:08:33;;;;;;;2.50;1.60;;;13.90;63.60;;;;;;6170323;23;20029;-74
2021/05/09 05:11:06;;;;;;;2.05;1.50;;;13.90;63.60;;;;;;6170123;23;20088;-74
2021/05/09 05:13:34;;;;;;;1.75;1.30;;;13.90;63.70;;;;;;6134474;23;20269;-74
2021/05/09 05:16:04;;;;;;;3.13;1.52;;;13.90;63.70;;;;;;6170338;23;20009;-74
2021/05/09 05:18:31;;;;;;;2.22;1.50;;;13.90;63.70;;;;;;6144126;23;20352;-75
2021/05/09 05:21:06;;;;;;;2.25;1.60;;;13.90;63.70;;;;;;6160420;23;20299;-74
2021/05/09 05:23:34;;;;;;;2.08;1.33;;;13.90;63.70;;;;;;6169514;23;20013;-74
2021/05/09 05:26:00;;;;;;;2.60;1.60;;;13.90;63.70;;;;;;6169887;23;20013;-74
2021/05/09 05:28:26;;;;;;;2.10;1.33;;;13.90;63.70;;;;;;6169088;23;20013;-74
2021/05/09 05:30:52;;;;;;;2.05;1.35;;;13.90;63.80;;;;;;6169958;23;20021;-74
2021/05/09 05:33:32;;;;;;;2.55;1.40;;;13.90;63.80;;;;;;6170074;23;20018;-74
2021/05/09 05:35:59;;;;;;;1.92;1.42;;;14.00;63.80;;;;;;6169397;23;20041;-74
2021/05/09 05:38:25;;;;;;;1.90;1.42;;;13.90;63.80;;;;;;6143202;23;20300;-74
2021/05/09 05:40:54;;;;;;;2.33;1.58;;;13.90;63.80;;;;;;6159406;23;20022;-74
2021/05/09 05:43:25;;;;;;;2.10;1.60;;;14.00;63.90;;;;;;6159304;23;20100;-74
2021/05/09 05:45:52;;;;;;;2.72;1.50;;;13.90;63.90;;;;;;6168926;23;20419;-74
2021/05/09 05:48:19;;;;;;;2.72;1.58;;;14.00;63.90;;;;;;6165982;23;20009;-74
2021/05/09 05:50:45;;;;;;;1.73;1.33;;;14.00;63.90;;;;;;6169957;23;20009;-74
2021/05/09 05:53:11;;;;;;;2.47;1.52;;;14.00;63.90;;;;;;6169861;23;20121;-74
2021/05/09 05:55:37;;;;;;;2.72;1.30;;;14.00;63.90;;;;;;6169098;23;20419;-74
2021/05/09 05:58:03;;;;;;;1.80;1.33;;;14.00;63.80;;;;;;6168980;23;20068;-74
2021/05/09 06:00:32;;;;;;;1.73;1.10;;;14.00;63.90;;;;;;6169041;23;20075;-74
2021/05/09 06:02:58;;;;;;;1.88;1.38;;;14.00;63.80;;;;;;6169143;23;20021;-74
2021/05/09 06:05:24;;;;;;;2.20;1.38;;;14.00;63.90;;;;;;6169756;23;20076;-74
2021/05/09 06:07:50;;;;;;;1.73;1.48;;;14.00;63.90;;;;;;6168894;23;20017;-74
2021/05/09 06:10:15;;;;;;;1.90;1.50;;;14.00;63.90;;;;;;6169187;23;20404;-74
2021/05/09 06:12:41;;;;;;;2.15;1.60;;;14.00;63.90;;;;;;6168591;23;20400;-74
2021/05/09 06:15:08;;;;;;;1.67;1.42;;;14.00;63.90;;;;;;6159246;23;20017;-74
2021/05/09 06:17:33;;;;;;;2.47;1.63;;;14.00;63.90;;;;;;6168896;23;20084;-74
2021/05/09 06:19:59;;;;;;;1.70;1.23;;;14.00;63.90;;;;;;6168865;23;20056;-74
2021/05/09 06:22:25;;;;;;;2.25;1.40;;;14.00;63.80;;;;;;6168555;23;20063;-74
2021/05/09 06:24:51;;;;;;;1.42;1.23;;;14.10;63.90;;;;;;6168902;23;20041;-74
2021/05/09 06:27:17;;;;;;;1.65;1.17;;;14.00;63.90;;;;;;6168524;23;20096;-74
2021/05/09 06:29:43;;;;;;;2.33;1.52;;;14.10;63.90;;;;;;6159281;23;20470;-74
2021/05/09 06:32:09;;;;;;;2.15;1.40;;;14.10;63.90;;;;;;6168821;23;20084;-74
2021/05/09 06:34:34;;;;;;;2.17;1.45;;;14.10;63.90;;;;;;6159043;23;20080;-74
2021/05/09 06:37:00;;;;;;;1.92;1.33;;;14.10;63.90;;;;;;6158740;23;20442;-74
2021/05/09 06:39:28;;;;;;;2.20;1.40;;;14.10;63.90;;;;;;6168270;23;20469;-75
2021/05/09 06:41:58;;;;;;;2.22;1.60;;;14.10;63.90;;;;;;6169341;23;20036;-75
2021/05/09 06:44:27;;;;;;;2.28;1.48;;;14.10;63.90;;;;;;6168737;23;20090;-74
2021/05/09 06:46:53;;;;;;;2.25;1.40;;;14.10;63.90;;;;;;6169086;23;20041;-74
2021/05/09 06:49:18;;;;;;;2.20;1.23;;;14.20;64.00;;;;;;6158531;23;20088;-75
2021/05/09 06:51:44;;;;;;;2.92;1.73;;;14.20;64.00;;;;;;6169004;23;20331;-74
2021/05/09 06:54:10;;;;;;;1.98;1.55;;;14.20;64.10;;;;;;6168661;23;20013;-74
2021/05/09 06:56:36;;;;;;;2.20;1.40;;;14.20;64.10;;;;;;6169084;23;20013;-74
2021/05/09 06:59:03;;;;;;;1.92;1.50;;;14.20;64.10;;;;;;6168617;23;20017;-75
2021/05/09 07:01:30;;;;;;;2.20;1.65;;;14.30;64.20;;;;;;6168516;23;20024;-74
2021/05/09 07:03:56;;;;;;;2.17;1.60;;;14.30;64.20;;;;;;6168330;23;20307;-74
2021/05/09 07:06:21;;;;;;;2.72;1.58;;;14.30;64.30;;;;;;6158825;23;20017;-74
2021/05/09 07:08:47;;;;;;;2.40;1.27;;;14.30;64.30;;;;;;6168462;23;20010;-75
2021/05/09 07:11:13;;;;;;;2.17;1.42;;;14.30;64.30;;;;;;6168377;23;20010;-74
2021/05/09 07:13:39;;;;;;;2.30;1.42;;;14.40;64.40;;;;;;6168801;23;20036;-75
2021/05/09 07:16:05;;;;;;;2.15;1.67;;;14.40;64.50;;;;;;6169118;23;20025;-75
2021/05/09 07:18:32;;;;;;;1.70;1.20;;;14.40;64.50;;;;;;6158481;23;20014;-75
2021/05/09 07:21:00;;;;;;;1.85;1.27;;;14.40;64.50;;;;;;6168933;23;20013;-75
2021/05/09 07:23:27;;;;;;;3.05;1.63;;;14.40;64.50;;;;;;6167994;23;20088;-75
2021/05/09 07:25:53;;;;;;;2.47;1.60;;;14.50;64.60;;;;;;6168216;23;20092;-74
2021/05/09 07:28:20;;;;;;;2.03;1.50;;;14.50;64.60;;;;;;6159230;23;20014;-75
2021/05/09 07:30:47;;;;;;;2.85;1.60;;;14.50;64.60;;;;;;6167956;23;20020;-75
2021/05/09 07:33:14;;;;;;;1.70;1.30;;;14.50;64.60;;;;;;6168599;23;20014;-74
2021/05/09 07:35:41;;;;;;;2.47;1.58;;;14.50;65.30;;;;;;6168390;23;20020;-75
2021/05/09 07:38:08;;;;;;;3.13;1.50;;;14.50;64.70;;;;;;6168105;23;20010;-75
2021/05/09 07:40:35;;;;;;;2.25;1.30;;;14.50;64.70;;;;;;6168759;23;20013;-75
2021/05/09 07:43:01;;;;;;;2.45;1.50;;;14.50;64.80;;;;;;6168401;23;20089;-75
2021/05/09 07:45:27;;;;;;;2.88;1.50;;;14.50;64.70;;;;;;6168855;23;20403;-75
2021/05/09 07:47:53;;;;;;;1.67;1.30;;;14.50;64.80;;;;;;6167080;23;20422;-75
2021/05/09 07:50:21;;;;;;;2.30;1.67;;;14.50;64.90;;;;;;6168085;23;20017;-75
2021/05/09 07:52:48;;;;;;;1.73;1.40;;;14.60;64.90;;;;;;6168693;23;20009;-75
2021/05/09 07:55:15;;;;;;;2.42;1.45;;;14.60;65.00;;;;;;6159062;23;20072;-76
2021/05/09 07:57:42;;;;;;;2.10;1.23;;;14.60;65.00;;;;;;6168345;23;20407;-75
2021/05/09 08:00:12;;;;;;;1.83;1.45;;;14.60;65.00;;;;;;6167913;23;20041;-74
2021/05/09 08:02:38;;;;;;;1.73;1.60;;;14.60;65.10;;;;;;6168043;23;20017;-74
2021/05/09 08:05:04;;;;;;;2.60;1.60;;;14.60;65.20;;;;;;6167964;23;20013;-75
2021/05/09 08:07:30;;;;;;;2.42;1.58;;;14.60;65.30;;;;;;6157645;23;20013;-75
2021/05/09 08:09:56;;;;;;;2.22;1.30;;;14.60;65.30;;;;;;6159037;23;20092;-75
2021/05/09 08:12:22;;;;;;;2.03;1.80;;;14.70;65.30;;;;;;6168189;23;20020;-74
2021/05/09 08:14:48;;;;;;;3.25;1.90;;;14.70;65.30;;;;;;6168297;23;20021;-75
2021/05/09 08:17:15;;;;;;;1.98;1.77;;;14.70;65.30;;;;;;6168536;23;20088;-75
2021/05/09 08:19:41;;;;;;;2.97;1.83;;;14.70;65.30;;;;;;6167822;23;20039;-75
2021/05/09 08:22:06;;;;;;;2.72;1.63;;;14.70;65.40;;;;;;6158253;23;20019;-75
2021/05/09 08:24:32;;;;;;;2.95;1.75;;;14.70;65.40;;;;;;6167758;23;20013;-75
2021/05/09 08:26:58;;;;;;;2.85;1.52;;;14.70;65.50;;;;;;6167900;23;20017;-75
2021/05/09 08:29:24;;;;;;;1.90;1.70;;;14.80;65.50;;;;;;6167817;23;20331;-75
2021/05/09 08:31:50;;;;;;;2.30;1.70;;;14.70;65.50;;;;;;6158931;23;20014;-75
2021/05/09 08:34:16;;;;;;;2.10;1.60;;;14.80;65.60;;;;;;6167775;23;20029;-75
2021/05/09 08:36:42;;;;;;;2.42;1.40;;;14.80;65.70;;;;;;6167431;23;20041;-75
2021/05/09 08:39:08;;;;;;;2.28;1.48;;;14.80;65.60;;;;;;6168519;23;20009;-75
2021/05/09 08:41:41;;;;;;;2.20;1.58;;;14.80;65.70;;;;;;6169883;23;20407;-75
2021/05/09 08:44:08;;;;;;;3.03;1.42;;;14.80;65.80;;;;;;6169576;23;20411;-75
2021/05/09 08:46:35;;;;;;;1.63;1.33;;;14.80;65.70;;;;;;6169645;23;20061;-75
2021/05/09 08:49:03;;;;;;;2.03;1.83;;;14.80;65.90;;;;;;6163857;23;20336;-74
2021/05/09 08:51:31;;;;;;;2.38;1.88;;;14.80;65.90;;;;;;6160166;23;20014;-75
2021/05/09 08:53:57;;;;;;;1.90;1.40;;;14.90;66.00;;;;;;6144616;23;20103;-75
2021/05/09 08:56:25;;;;;;;3.13;1.55;;;14.80;66.00;;;;;;6160182;23;20021;-75
2021/05/09 08:58:52;;;;;;;2.40;1.48;;;14.90;66.00;;;;;;6169652;23;20068;-75
2021/05/09 09:01:18;;;;;;;2.85;1.90;;;14.90;66.00;;;;;;6169310;23;20028;-75
2021/05/09 09:03:44;;;;;;;2.92;1.58;;;14.90;66.00;;;;;;6169259;23;20403;-75
2021/05/09 09:06:16;;;;;;;1.70;1.50;;;14.80;66.10;;;;;;6159931;23;20013;-75
2021/05/09 09:08:52;;;;;;;2.33;1.55;;;14.90;66.10;;;;;;6169637;23;20013;-75
2021/05/09 09:11:28;;;;;;;1.90;1.70;;;14.90;66.10;;;;;;6169570;23;20415;-75
2021/05/09 09:14:10;;;;;;;2.55;1.65;;;14.90;66.10;;;;;;6170120;23;20013;-75
2021/05/09 09:16:37;;;;;;;1.80;1.30;;;14.90;66.10;;;;;;6169615;23;20395;-75
2021/05/09 09:19:11;;;;;;;1.77;1.55;;;14.90;66.00;;;;;;6170100;23;20014;-75
2021/05/09 09:21:37;;;;;;;1.60;1.48;;;14.90;66.10;;;;;;6169229;23;20023;-76
2021/05/09 09:24:12;;;;;;;1.90;1.60;;;14.90;66.00;;;;;;6169837;23;20009;-75
2021/05/09 09:26:47;;;;;;;3.65;1.70;;;14.90;65.90;;;;;;6168931;23;20419;-75
2021/05/09 09:29:34;;;;;;;3.20;1.45;;;14.90;65.90;;;;;;6159975;23;20024;-75
2021/05/09 09:32:06;;;;;;;2.05;1.50;;;14.90;65.90;;;;;;6170135;23;20013;-75
2021/05/09 09:34:39;;;;;;;2.20;1.70;;;14.90;66.00;;;;;;6169152;23;20350;-75
2021/05/09 09:37:06;;;;;;;2.05;1.60;;;14.90;65.90;;;;;;6160433;23;20017;-75
2021/05/09 09:39:49;;;;;;;1.73;1.45;;;14.90;65.90;;;;;;6170091;23;20013;-75
2021/05/09 09:42:16;;;;;;;2.10;1.55;;;14.90;66.00;;;;;;6169386;23;20081;-75
2021/05/09 09:44:42;;;;;;;2.05;1.60;;;14.90;65.90;;;;;;6169517;23;20009;-76
2021/05/09 09:47:08;;;;;;;2.95;1.60;;;14.90;65.90;;;;;;6169081;23;20068;-76
2021/05/09 09:49:37;;;;;;;1.90;1.70;;;14.90;65.80;;;;;;6158976;23;20092;-75
2021/05/09 09:52:07;;;;;;;2.35;1.92;;;14.90;65.80;;;;;;6168678;23;20017;-75
2021/05/09 09:54:43;;;;;;;1.60;1.20;;;14.90;65.80;;;;;;6158792;23;20296;-75
2021/05/09 09:57:22;;;;;;;2.35;1.50;;;14.90;65.80;;;;;;6169416;23;20051;-75
2021/05/09 10:00:12;;;;;;;1.40;1.20;;;14.90;65.80;;;;;;6169079;23;20037;-75
2021/05/09 10:02:39;;;;;;;1.83;1.63;;;14.90;65.80;;;;;;6169193;23;20024;-75
2021/05/09 10:05:06;;;;;;;2.25;1.45;;;14.90;65.70;;;;;;6169515;23;20020;-75
2021/05/09 10:07:33;;;;;;;1.58;1.10;;;14.90;65.70;;;;;;6169340;23;20017;-75
2021/05/09 10:09:59;;;;;;;1.92;1.10;;;14.90;65.60;;;;;;6168747;23;20315;-75
2021/05/09 10:12:25;;;;;;;1.48;1.38;;;14.90;65.60;;;;;;6168992;23;20013;-75
2021/05/09 10:14:52;;;;;;;1.60;1.40;;;14.90;65.60;;;;;;6168544;23;20415;-75
2021/05/09 10:17:22;;;;;;;2.22;1.50;;;14.90;65.50;;;;;;6168720;23;20087;-75
2021/05/09 10:19:48;;;;;;;1.50;1.40;;;14.90;65.50;;;;;;6168550;23;20347;-75
2021/05/09 10:22:29;;;;;;;2.33;1.40;;;14.90;65.50;;;;;;6169696;23;20017;-75
2021/05/09 10:24:55;;;;;;;1.63;1.50;;;15.00;65.60;;;;;;6169012;23;20072;-75
2021/05/09 10:27:37;;;;;;;1.40;1.25;;;15.00;65.40;;;;;;6169186;23;20017;-74
2021/05/09 10:30:11;;;;;;;1.70;1.40;;;15.00;65.40;;;;;;6169013;23;20021;-75
2021/05/09 10:32:36;;;;;;;1.73;1.33;;;14.90;65.30;;;;;;6168969;23;20009;-75
2021/05/09 10:35:07;;;;;;;2.33;1.60;;;15.00;65.30;;;;;;6168481;23;20036;-74
2021/05/09 10:37:42;;;;;;;1.67;1.23;;;15.00;65.30;;;;;;6168432;23;20092;-75
2021/05/09 10:40:30;;;;;;;1.80;1.20;;;15.00;65.30;;;;;;6168616;23;20009;-75
2021/05/09 10:43:05;;;;;;;1.67;1.25;;;15.00;65.20;;;;;;6159188;23;20009;-75
2021/05/09 10:45:55;;;;;;;2.03;1.42;;;15.00;65.30;;;;;;6168897;23;20010;-75
2021/05/09 10:48:33;;;;;;;1.98;1.25;;;15.00;65.30;;;;;;6158743;23;20128;-75
2021/05/09 10:51:02;;;;;;;1.73;1.30;;;15.00;65.20;;;;;;6168595;23;20014;-75
2021/05/09 10:53:33;;;;;;;1.70;1.30;;;15.00;65.20;;;;;;6168711;23;20052;-74
2021/05/09 10:56:03;;;;;;;2.22;1.35;;;15.00;65.20;;;;;;6168755;23;20013;-75
2021/05/09 10:58:45;;;;;;;2.67;1.42;;;15.00;65.20;;;;;;6169083;23;20076;-75
2021/05/09 11:01:24;;;;;;;2.10;1.33;;;15.00;65.20;;;;;;6168228;23;20040;-75
2021/05/09 11:03:57;;;;;;;1.52;1.10;;;15.00;65.20;;;;;;6168538;23;20013;-75
2021/05/09 11:06:26;;;;;;;1.55;1.10;;;15.00;65.30;;;;;;6168552;23;20010;-75
2021/05/09 11:09:19;;;;;;;1.88;1.30;;;15.00;65.20;;;;;;6168521;23;20045;-75
2021/05/09 11:11:45;;;;;;;1.88;1.40;;;15.00;65.20;;;;;;6168861;23;20014;-75
2021/05/09 11:14:11;;;;;;;1.08;0.98;;;15.00;65.80;;;;;;6169093;23;20095;-75
2021/05/09 11:16:42;;;;;;;1.98;1.27;;;15.00;65.10;;;;;;6168395;23;20025;-75
2021/05/09 11:19:09;;;;;;;1.52;1.10;;;15.00;65.20;;;;;;6168939;23;20457;-74
2021/05/09 11:21:44;;;;;;;2.15;1.30;;;15.00;65.20;;;;;;6168605;23;20044;-75
2021/05/09 11:24:17;;;;;;;1.90;1.23;;;15.00;65.10;;;;;;6168294;23;20076;-75
2021/05/09 11:26:45;;;;;;;2.03;1.20;;;15.10;65.30;;;;;;6168239;23;20088;-75
2021/05/09 11:29:15;;;;;;;1.50;1.30;;;15.10;65.40;;;;;;6142851;23;20248;-75
2021/05/09 11:31:47;;;;;;;1.70;1.42;;;15.10;65.50;;;;;;6167906;23;20039;-75
2021/05/09 11:34:15;;;;;;;1.23;1.10;;;15.10;65.40;;;;;;6158260;23;20078;-75
2021/05/09 11:36:42;;;;;;;1.88;1.23;;;15.10;65.50;;;;;;6168229;23;20016;-75
2021/05/09 11:39:16;;;;;;;1.42;1.00;;;15.10;65.50;;;;;;6158556;23;20345;-75
2021/05/09 11:42:04;;;;;;;1.85;1.33;;;15.10;65.60;;;;;;6168202;23;20018;-75
2021/05/09 11:44:46;;;;;;;1.52;1.08;;;15.10;65.70;;;;;;6168416;23;20013;-75
2021/05/09 11:47:23;;;;;;;1.73;1.15;;;15.10;65.70;;;;;;6168148;23;20327;-75
2021/05/09 11:49:51;;;;;;;1.58;1.23;;;15.10;65.70;;;;;;6133989;23;20084;-75
2021/05/09 11:52:21;;;;;;;1.73;1.25;;;15.10;65.70;;;;;;6167635;23;20009;-75
2021/05/09 11:54:56;;;;;;;1.60;1.15;;;15.10;66.30;;;;;;6169124;23;20013;-75
2021/05/09 11:57:24;;;;;;;2.00;1.50;;;15.10;65.80;;;;;;6168759;23;20016;-75
2021/05/09 12:00:00;;;;;;;1.83;1.30;;;15.10;65.80;;;;;;6167665;23;20376;-75
2021/05/09 12:02:31;;;;;;;1.70;1.30;;;15.10;65.80;;;;;;6158452;23;20029;-75
2021/05/09 12:04:58;;;;;;;1.60;1.02;;;15.10;65.90;;;;;;6158382;23;20014;-75
2021/05/09 12:07:25;;;;;;;1.30;0.90;;;15.10;65.90;;;;;;6168043;23;20085;-75
2021/05/09 12:09:59;;;;;;;1.45;1.10;;;15.20;66.00;;;;;;6167833;23;20492;-75
2021/05/09 12:12:27;;;;;;;1.80;1.40;;;15.10;66.10;;;;;;6159090;23;20017;-75
2021/05/09 12:14:54;;;;;;;1.10;1.00;;;15.20;66.10;;;;;;6167453;23;20053;-75
2021/05/09 12:17:25;;;;;;;3.00;1.33;;;15.20;66.10;;;;;;6167868;23;20041;-75
2021/05/09 12:19:52;;;;;;;1.75;1.40;;;15.10;66.20;;;;;;6167827;23;20017;-75
2021/05/09 12:22:18;;;;;;;1.52;1.20;;;15.20;66.20;;;;;;6157926;23;20047;-75
2021/05/09 12:24:53;;;;;;;2.38;1.35;;;15.10;66.20;;;;;;6167527;23;20013;-75
2021/05/09 12:27:20;;;;;;;1.15;0.90;;;15.20;66.50;;;;;;6167859;23;20087;-75
2021/05/09 12:29:54;;;;;;;1.73;1.38;;;15.20;66.40;;;;;;6157877;23;20032;-75
2021/05/09 12:32:20;;;;;;;2.00;1.00;;;15.20;66.40;;;;;;6167840;23;20024;-75
2021/05/09 12:35:02;;;;;;;2.00;1.10;;;15.20;66.30;;;;;;6168201;23;20017;-75
2021/05/09 12:37:30;;;;;;;1.40;1.08;;;15.20;66.40;;;;;;6167970;23;20017;-75
2021/05/09 12:40:15;;;;;;;2.53;1.15;;;15.20;66.30;;;;;;6167947;23;20075;-75
2021/05/09 12:42:56;;;;;;;1.05;0.82;;;15.20;66.40;;;;;;6164889;23;20060;-75
2021/05/09 12:45:36;;;;;;;1.30;1.00;;;15.20;66.50;;;;;;6168313;23;20415;-74
2021/05/09 12:48:05;;;;;;;2.05;1.13;;;15.20;66.40;;;;;;6166540;23;20442;-75
2021/05/09 12:50:59;;;;;;;1.35;0.98;;;15.20;66.40;;;;;;6099440;23;20052;-75
2021/05/09 12:53:41;;;;;;;2.33;1.20;;;15.20;66.50;;;;;;6108884;23;20032;-75